sensor_id;sensor_type;location;lat;lon;timestamp;pressure;altitude;pressure_sealevel;temperature;humidity
10587;BME280;5341;47.606;7.576;2023-07-09T00:00:47;99104.25;;;27.74;47.42
10587;BME280;5341;47.606;7.576;2023-07-09T00:03:15;99100.16;;;27.71;47.63
10587;BME280;5341;47.606;7.576;2023-07-09T00:05:46;99100.72;;;27.68;47.63
10587;BME280;5341;47.606;7.576;2023-07-09T00:08:24;99105.41;;;27.68;47.59
10587;BME280;5341;47.606;7.576;2023-07-09T00:10:54;99102.94;;;27.66;47.44
10587;BME280;5341;47.606;7.576;2023-07-09T00:13:22;99106.25;;;27.63;47.41
10587;BME280;5341;47.606;7.576;2023-07-09T00:15:51;99104.59;;;27.62;47.74
10587;BME280;5341;47.606;7.576;2023-07-09T00:18:21;99098.84;;;27.59;47.44
10587;BME280;5341;47.606;7.576;2023-07-09T00:20:49;99112.56;;;27.59;47.46
10587;BME280;5341;47.606;7.576;2023-07-09T00:23:19;99107.66;;;27.56;47.75
10587;BME280;5341;47.606;7.576;2023-07-09T00:25:50;99098.88;;;27.54;47.47
10587;BME280;5341;47.606;7.576;2023-07-09T00:28:19;99103.03;;;27.51;47.44
10587;BME280;5341;47.606;7.576;2023-07-09T00:30:51;99108.78;;;27.50;47.36
10587;BME280;5341;47.606;7.576;2023-07-09T00:33:19;99108.53;;;27.46;47.87
10587;BME280;5341;47.606;7.576;2023-07-09T00:35:48;99101.41;;;27.45;47.88
10587;BME280;5341;47.606;7.576;2023-07-09T00:38:20;99104.72;;;27.42;47.56
10587;BME280;5341;47.606;7.576;2023-07-09T00:41:01;99106.13;;;27.39;47.55
10587;BME280;5341;47.606;7.576;2023-07-09T00:43:34;99098.16;;;27.38;47.71
10587;BME280;5341;47.606;7.576;2023-07-09T00:47:18;99104.75;;;27.37;47.79
10587;BME280;5341;47.606;7.576;2023-07-09T00:49:09;99099.81;;;27.34;47.88
10587;BME280;5341;47.606;7.576;2023-07-09T00:51:46;99098.47;;;27.31;47.70
10587;BME280;5341;47.606;7.576;2023-07-09T00:54:25;99100.69;;;27.29;47.88
10587;BME280;5341;47.606;7.576;2023-07-09T00:56:59;99105.66;;;27.27;47.62
10587;BME280;5341;47.606;7.576;2023-07-09T00:59:28;99098.75;;;27.25;47.89
10587;BME280;5341;47.606;7.576;2023-07-09T01:02:11;99102.91;;;27.22;47.69
10587;BME280;5341;47.606;7.576;2023-07-09T01:04:42;99111.44;;;27.21;48.15
10587;BME280;5341;47.606;7.576;2023-07-09T01:07:10;99106.22;;;27.19;47.78
10587;BME280;5341;47.606;7.576;2023-07-09T01:09:40;99104.06;;;27.16;48.04
10587;BME280;5341;47.606;7.576;2023-07-09T01:12:09;99106.25;;;27.14;48.17
10587;BME280;5341;47.606;7.576;2023-07-09T01:14:39;99099.38;;;27.11;47.86
10587;BME280;5341;47.606;7.576;2023-07-09T01:17:07;99106.00;;;27.10;48.18
10587;BME280;5341;47.606;7.576;2023-07-09T01:19:41;99095.28;;;27.09;47.84
10587;BME280;5341;47.606;7.576;2023-07-09T01:22:14;99108.47;;;27.07;47.99
10587;BME280;5341;47.606;7.576;2023-07-09T01:24:57;99106.03;;;27.05;48.13
10587;BME280;5341;47.606;7.576;2023-07-09T01:27:30;99112.91;;;27.03;48.21
10587;BME280;5341;47.606;7.576;2023-07-09T01:30:00;99109.84;;;26.99;48.16
10587;BME280;5341;47.606;7.576;2023-07-09T01:32:28;99116.72;;;26.97;47.98
10587;BME280;5341;47.606;7.576;2023-07-09T01:35:02;99114.28;;;26.95;47.95
10587;BME280;5341;47.606;7.576;2023-07-09T01:37:33;99107.41;;;26.93;48.23
10587;BME280;5341;47.606;7.576;2023-07-09T01:40:03;99101.41;;;26.91;48.14
10587;BME280;5341;47.606;7.576;2023-07-09T01:42:31;99099.19;;;26.87;48.20
10587;BME280;5341;47.606;7.576;2023-07-09T01:44:59;99109.63;;;26.85;48.44
10587;BME280;5341;47.606;7.576;2023-07-09T01:47:31;99097.28;;;26.83;48.36
10587;BME280;5341;47.606;7.576;2023-07-09T01:49:59;99113.22;;;26.81;48.36
10587;BME280;5341;47.606;7.576;2023-07-09T01:52:30;99108.03;;;26.79;48.45
10587;BME280;5341;47.606;7.576;2023-07-09T01:55:00;99117.34;;;26.78;48.21
10587;BME280;5341;47.606;7.576;2023-07-09T01:57:30;99114.03;;;26.76;48.39
10587;BME280;5341;47.606;7.576;2023-07-09T02:00:02;99118.72;;;26.76;48.59
10587;BME280;5341;47.606;7.576;2023-07-09T02:02:39;99115.44;;;26.74;48.43
10587;BME280;5341;47.606;7.576;2023-07-09T02:05:11;99106.66;;;26.72;48.36
10587;BME280;5341;47.606;7.576;2023-07-09T02:07:40;99110.50;;;26.71;48.46
10587;BME280;5341;47.606;7.576;2023-07-09T02:10:11;99100.63;;;26.70;48.48
10587;BME280;5341;47.606;7.576;2023-07-09T02:12:39;99097.34;;;26.68;48.48
10587;BME280;5341;47.606;7.576;2023-07-09T02:15:08;99100.63;;;26.65;48.20
10587;BME280;5341;47.606;7.576;2023-07-09T02:17:36;99102.84;;;26.63;48.40
10587;BME280;5341;47.606;7.576;2023-07-09T02:20:04;99107.78;;;26.61;48.34
10587;BME280;5341;47.606;7.576;2023-07-09T02:22:33;99108.91;;;26.60;48.67
10587;BME280;5341;47.606;7.576;2023-07-09T02:25:01;99107.25;;;26.58;48.39
10587;BME280;5341;47.606;7.576;2023-07-09T02:27:30;99106.72;;;26.56;48.64
10587;BME280;5341;47.606;7.576;2023-07-09T02:29:58;99107.81;;;26.55;48.48
10587;BME280;5341;47.606;7.576;2023-07-09T02:32:27;99109.16;;;26.53;48.50
10587;BME280;5341;47.606;7.576;2023-07-09T02:34:55;99106.72;;;26.51;48.47
10587;BME280;5341;47.606;7.576;2023-07-09T02:37:25;99104.25;;;26.50;48.33
10587;BME280;5341;47.606;7.576;2023-07-09T02:39:54;99112.75;;;26.48;48.44
10587;BME280;5341;47.606;7.576;2023-07-09T02:42:23;99117.72;;;26.46;48.43
10587;BME280;5341;47.606;7.576;2023-07-09T02:44:52;99112.78;;;26.43;48.60
10587;BME280;5341;47.606;7.576;2023-07-09T02:47:23;99114.72;;;26.43;48.41
10587;BME280;5341;47.606;7.576;2023-07-09T02:49:52;99116.06;;;26.40;48.60
10587;BME280;5341;47.606;7.576;2023-07-09T02:52:19;99126.50;;;26.38;48.42
10587;BME280;5341;47.606;7.576;2023-07-09T02:54:47;99126.78;;;26.37;48.47
10587;BME280;5341;47.606;7.576;2023-07-09T02:57:16;99124.28;;;26.35;48.79
10587;BME280;5341;47.606;7.576;2023-07-09T02:59:44;99119.88;;;26.34;48.62
10587;BME280;5341;47.606;7.576;2023-07-09T03:02:13;99131.16;;;26.33;48.72
10587;BME280;5341;47.606;7.576;2023-07-09T03:04:41;99130.59;;;26.31;48.55
10587;BME280;5341;47.606;7.576;2023-07-09T03:07:08;99138.25;;;26.28;48.55
10587;BME280;5341;47.606;7.576;2023-07-09T03:09:36;99136.91;;;26.26;48.49
10587;BME280;5341;47.606;7.576;2023-07-09T03:12:04;99144.28;;;26.25;48.50
10587;BME280;5341;47.606;7.576;2023-07-09T03:14:32;99136.34;;;26.24;48.56
10587;BME280;5341;47.606;7.576;2023-07-09T03:17:00;99141.28;;;26.22;48.74
10587;BME280;5341;47.606;7.576;2023-07-09T03:19:29;99145.41;;;26.19;48.84
10587;BME280;5341;47.606;7.576;2023-07-09T03:21:57;99140.22;;;26.18;49.04
10587;BME280;5341;47.606;7.576;2023-07-09T03:24:24;99134.16;;;26.16;48.84
10587;BME280;5341;47.606;7.576;2023-07-09T03:26:52;99137.44;;;26.13;48.98
10587;BME280;5341;47.606;7.576;2023-07-09T03:29:22;99134.44;;;26.09;48.97
10587;BME280;5341;47.606;7.576;2023-07-09T03:31:49;99134.72;;;26.08;49.12
10587;BME280;5341;47.606;7.576;2023-07-09T03:34:17;99132.53;;;26.05;49.08
10587;BME280;5341;47.606;7.576;2023-07-09T03:36:47;99133.59;;;26.04;49.15
10587;BME280;5341;47.606;7.576;2023-07-09T03:39:14;99132.25;;;26.01;49.16
10587;BME280;5341;47.606;7.576;2023-07-09T03:41:42;99132.53;;;25.99;49.12
10587;BME280;5341;47.606;7.576;2023-07-09T03:44:12;99133.63;;;25.98;49.16
10587;BME280;5341;47.606;7.576;2023-07-09T03:46:39;99133.91;;;25.97;48.87
10587;BME280;5341;47.606;7.576;2023-07-09T03:49:07;99147.06;;;25.95;48.91
10587;BME280;5341;47.606;7.576;2023-07-09T03:51:34;99146.50;;;25.93;48.96
10587;BME280;5341;47.606;7.576;2023-07-09T03:54:04;99142.09;;;25.92;49.06
10587;BME280;5341;47.606;7.576;2023-07-09T03:56:31;99150.59;;;25.90;49.19
10587;BME280;5341;47.606;7.576;2023-07-09T03:58:59;99151.41;;;25.91;48.94
10587;BME280;5341;47.606;7.576;2023-07-09T04:01:26;99159.91;;;25.89;49.21
10587;BME280;5341;47.606;7.576;2023-07-09T04:03:54;99159.09;;;25.89;49.28
10587;BME280;5341;47.606;7.576;2023-07-09T04:06:21;99161.84;;;25.89;49.03
10587;BME280;5341;47.606;7.576;2023-07-09T04:08:49;99164.56;;;25.89;48.96
10587;BME280;5341;47.606;7.576;2023-07-09T04:11:18;99165.66;;;25.88;49.21
10587;BME280;5341;47.606;7.576;2023-07-09T04:13:45;99164.03;;;25.87;49.20
10587;BME280;5341;47.606;7.576;2023-07-09T04:16:12;99164.03;;;25.87;49.31
10587;BME280;5341;47.606;7.576;2023-07-09T04:18:40;99165.13;;;25.86;49.20
10587;BME280;5341;47.606;7.576;2023-07-09T04:21:08;99171.72;;;25.85;49.12
10587;BME280;5341;47.606;7.576;2023-07-09T04:23:35;99168.16;;;25.84;49.03
10587;BME280;5341;47.606;7.576;2023-07-09T04:26:03;99168.16;;;25.84;49.12
10587;BME280;5341;47.606;7.576;2023-07-09T04:28:36;99158.56;;;25.82;48.97
10587;BME280;5341;47.606;7.576;2023-07-09T04:31:04;99164.84;;;25.82;49.11
10587;BME280;5341;47.606;7.576;2023-07-09T04:33:32;99158.56;;;25.82;49.13
10587;BME280;5341;47.606;7.576;2023-07-09T04:36:01;99155.81;;;25.82;49.20
10587;BME280;5341;47.606;7.576;2023-07-09T04:38:32;99159.66;;;25.81;49.37
10587;BME280;5341;47.606;7.576;2023-07-09T04:41:00;99157.72;;;25.81;49.22
10587;BME280;5341;47.606;7.576;2023-07-09T04:43:27;99159.66;;;25.81;49.44
10587;BME280;5341;47.606;7.576;2023-07-09T04:45:56;99163.22;;;25.81;49.54
10587;BME280;5341;47.606;7.576;2023-07-09T04:48:24;99168.69;;;25.81;49.46
10587;BME280;5341;47.606;7.576;2023-07-09T04:50:51;99162.41;;;25.81;49.33
10587;BME280;5341;47.606;7.576;2023-07-09T04:53:19;99172.50;;;25.80;49.39
10587;BME280;5341;47.606;7.576;2023-07-09T04:55:46;99159.66;;;25.81;49.25
10587;BME280;5341;47.606;7.576;2023-07-09T04:58:15;99161.53;;;25.80;49.41
10587;BME280;5341;47.606;7.576;2023-07-09T05:00:42;99156.06;;;25.80;49.23
10587;BME280;5341;47.606;7.576;2023-07-09T05:03:11;99156.06;;;25.80;49.51
10587;BME280;5341;47.606;7.576;2023-07-09T05:05:42;99161.81;;;25.79;49.60
10587;BME280;5341;47.606;7.576;2023-07-09T05:08:10;99155.53;;;25.78;49.54
10587;BME280;5341;47.606;7.576;2023-07-09T05:10:41;99162.63;;;25.79;49.41
10587;BME280;5341;47.606;7.576;2023-07-09T05:13:08;99159.66;;;25.81;49.65
10587;BME280;5341;47.606;7.576;2023-07-09T05:15:40;99161.03;;;25.83;49.40
10587;BME280;5341;47.606;7.576;2023-07-09T05:18:08;99158.00;;;25.85;49.56
10587;BME280;5341;47.606;7.576;2023-07-09T05:20:37;99152.25;;;25.86;49.32
10587;BME280;5341;47.606;7.576;2023-07-09T05:23:04;99162.13;;;25.87;49.32
10587;BME280;5341;47.606;7.576;2023-07-09T05:25:32;99164.84;;;25.87;49.65
10587;BME280;5341;47.606;7.576;2023-07-09T05:28:00;99160.19;;;25.88;49.52
10587;BME280;5341;47.606;7.576;2023-07-09T05:30:27;99159.91;;;25.89;49.64
10587;BME280;5341;47.606;7.576;2023-07-09T05:32:55;99155.25;;;25.90;49.61
10587;BME280;5341;47.606;7.576;2023-07-09T05:35:23;99152.53;;;25.90;49.55
10587;BME280;5341;47.606;7.576;2023-07-09T05:37:53;99151.69;;;25.89;49.26
10587;BME280;5341;47.606;7.576;2023-07-09T05:40:22;99154.16;;;25.91;49.45
10587;BME280;5341;47.606;7.576;2023-07-09T05:42:53;99156.63;;;25.92;49.34
10587;BME280;5341;47.606;7.576;2023-07-09T05:45:21;99159.13;;;25.94;49.51
10587;BME280;5341;47.606;7.576;2023-07-09T05:47:49;99166.25;;;25.95;49.58
10587;BME280;5341;47.606;7.576;2023-07-09T05:50:23;99165.16;;;25.96;49.40
10587;BME280;5341;47.606;7.576;2023-07-09T05:52:53;99165.16;;;25.96;49.38
10587;BME280;5341;47.606;7.576;2023-07-09T05:55:21;99152.25;;;25.96;49.67
10587;BME280;5341;47.606;7.576;2023-07-09T05:57:48;99149.25;;;25.98;49.27
10587;BME280;5341;47.606;7.576;2023-07-09T06:00:16;99146.22;;;25.99;49.78
10587;BME280;5341;47.606;7.576;2023-07-09T06:02:45;99154.16;;;26.01;49.69
10587;BME280;5341;47.606;7.576;2023-07-09T06:05:14;99150.06;;;26.04;49.40
10587;BME280;5341;47.606;7.576;2023-07-09T06:07:46;99150.34;;;26.07;49.58
10587;BME280;5341;47.606;7.576;2023-07-09T06:10:18;99151.72;;;26.10;49.65
10587;BME280;5341;47.606;7.576;2023-07-09T06:12:50;99156.66;;;26.13;49.23
10587;BME280;5341;47.606;7.576;2023-07-09T06:15:19;99158.00;;;26.15;49.76
10587;BME280;5341;47.606;7.576;2023-07-09T06:17:47;99160.22;;;26.18;49.45
10587;BME280;5341;47.606;7.576;2023-07-09T06:20:15;99156.66;;;26.23;49.69
10587;BME280;5341;47.606;7.576;2023-07-09T06:22:43;99150.59;;;26.26;49.44
10587;BME280;5341;47.606;7.576;2023-07-09T06:25:10;99155.00;;;26.32;49.55
10587;BME280;5341;47.606;7.576;2023-07-09T06:27:39;99157.47;;;26.39;49.53
10587;BME280;5341;47.606;7.576;2023-07-09T06:30:08;99154.47;;;26.45;49.47
10587;BME280;5341;47.606;7.576;2023-07-09T06:32:35;99147.03;;;26.51;49.83
10587;BME280;5341;47.606;7.576;2023-07-09T06:35:03;99151.97;;;26.59;49.49
10587;BME280;5341;47.606;7.576;2023-07-09T06:37:31;99156.09;;;26.67;49.65
10587;BME280;5341;47.606;7.576;2023-07-09T06:39:58;99156.31;;;26.75;49.23
10587;BME280;5341;47.606;7.576;2023-07-09T06:42:26;99146.41;;;26.84;48.97
10587;BME280;5341;47.606;7.576;2023-07-09T06:45:07;99150.78;;;26.96;49.15
10587;BME280;5341;47.606;7.576;2023-07-09T06:47:35;99153.78;;;27.09;48.91
10587;BME280;5341;47.606;7.576;2023-07-09T06:50:03;99151.53;;;27.22;48.89
10587;BME280;5341;47.606;7.576;2023-07-09T06:52:30;99141.03;;;27.34;49.04
10587;BME280;5341;47.606;7.576;2023-07-09T06:54:58;99143.72;;;27.44;48.27
10587;BME280;5341;47.606;7.576;2023-07-09T06:57:25;99141.72;;;27.55;48.28
10587;BME280;5341;47.606;7.576;2023-07-09T06:59:53;99146.91;;;27.66;47.89
10587;BME280;5341;47.606;7.576;2023-07-09T07:02:22;99146.84;;;27.77;47.38
10587;BME280;5341;47.606;7.576;2023-07-09T07:04:50;99144.59;;;27.84;47.17
10587;BME280;5341;47.606;7.576;2023-07-09T07:07:17;99141.22;;;27.92;46.74
10587;BME280;5341;47.606;7.576;2023-07-09T07:09:45;99143.38;;;28.00;46.07
10587;BME280;5341;47.606;7.576;2023-07-09T07:12:22;99144.69;;;28.08;45.85
10587;BME280;5341;47.606;7.576;2023-07-09T07:14:50;99136.41;;;28.13;45.89
10587;BME280;5341;47.606;7.576;2023-07-09T07:17:18;99137.41;;;28.22;45.71
10587;BME280;5341;47.606;7.576;2023-07-09T07:19:47;99143.13;;;28.30;45.49
10587;BME280;5341;47.606;7.576;2023-07-09T07:22:15;99136.78;;;28.35;45.19
10587;BME280;5341;47.606;7.576;2023-07-09T07:24:42;99127.88;;;28.43;45.17
10587;BME280;5341;47.606;7.576;2023-07-09T07:27:10;99128.59;;;28.54;45.26
10587;BME280;5341;47.606;7.576;2023-07-09T07:29:38;99133.78;;;28.60;44.79
10587;BME280;5341;47.606;7.576;2023-07-09T07:32:06;99138.06;;;28.72;44.78
10587;BME280;5341;47.606;7.576;2023-07-09T07:34:34;99134.34;;;28.81;44.48
10587;BME280;5341;47.606;7.576;2023-07-09T07:37:06;99145.28;;;28.92;44.62
10587;BME280;5341;47.606;7.576;2023-07-09T07:39:34;99136.91;;;29.02;44.60
10587;BME280;5341;47.606;7.576;2023-07-09T07:42:04;99141.78;;;29.10;44.06
10587;BME280;5341;47.606;7.576;2023-07-09T07:44:33;99147.41;;;29.18;43.85
10587;BME280;5341;47.606;7.576;2023-07-09T07:47:03;99146.25;;;29.25;43.57
10587;BME280;5341;47.606;7.576;2023-07-09T07:49:31;99145.06;;;29.31;43.31
10587;BME280;5341;47.606;7.576;2023-07-09T07:51:59;99140.38;;;29.31;43.31
10587;BME280;5341;47.606;7.576;2023-07-09T07:54:31;99137.25;;;29.38;43.07
10587;BME280;5341;47.606;7.576;2023-07-09T07:56:59;99137.72;;;29.45;43.04
10587;BME280;5341;47.606;7.576;2023-07-09T07:59:30;99138.50;;;29.51;43.09
10587;BME280;5341;47.606;7.576;2023-07-09T08:02:00;99138.13;;;29.57;42.83
10587;BME280;5341;47.606;7.576;2023-07-09T08:04:28;99133.56;;;29.66;42.76
10587;BME280;5341;47.606;7.576;2023-07-09T08:06:56;99145.25;;;29.77;42.68
10587;BME280;5341;47.606;7.576;2023-07-09T08:09:25;99145.72;;;29.84;42.42
10587;BME280;5341;47.606;7.576;2023-07-09T08:11:54;99144.75;;;29.94;42.38
10587;BME280;5341;47.606;7.576;2023-07-09T08:14:22;99130.75;;;30.04;42.58
10587;BME280;5341;47.606;7.576;2023-07-09T08:16:49;99134.81;;;30.12;42.55
10587;BME280;5341;47.606;7.576;2023-07-09T08:19:20;99138.53;;;30.21;42.50
10587;BME280;5341;47.606;7.576;2023-07-09T08:21:47;99144.75;;;30.26;41.68
10587;BME280;5341;47.606;7.576;2023-07-09T08:24:15;99145.28;;;30.28;41.48
10587;BME280;5341;47.606;7.576;2023-07-09T08:26:42;99147.44;;;30.31;41.41
10587;BME280;5341;47.606;7.576;2023-07-09T08:29:11;99143.97;;;30.40;40.92
10587;BME280;5341;47.606;7.576;2023-07-09T08:31:39;99144.63;;;30.50;40.83
10587;BME280;5341;47.606;7.576;2023-07-09T08:34:08;99143.03;;;30.63;40.43
10587;BME280;5341;47.606;7.576;2023-07-09T08:36:35;99135.38;;;30.74;40.46
10587;BME280;5341;47.606;7.576;2023-07-09T08:39:06;99142.34;;;30.85;39.88
10587;BME280;5341;47.606;7.576;2023-07-09T08:41:40;99140.00;;;30.92;39.42
10587;BME280;5341;47.606;7.576;2023-07-09T08:44:22;99143.06;;;30.90;39.47
10587;BME280;5341;47.606;7.576;2023-07-09T08:47:00;99137.63;;;30.99;39.22
10587;BME280;5341;47.606;7.576;2023-07-09T08:49:38;99138.44;;;31.13;39.19
10587;BME280;5341;47.606;7.576;2023-07-09T08:52:14;99137.75;;;31.22;39.25
10587;BME280;5341;47.606;7.576;2023-07-09T08:54:48;99132.31;;;31.30;39.15
10587;BME280;5341;47.606;7.576;2023-07-09T08:57:22;99133.22;;;31.39;39.19
10587;BME280;5341;47.606;7.576;2023-07-09T09:00:01;99123.59;;;31.51;39.38
10587;BME280;5341;47.606;7.576;2023-07-09T09:02:36;99124.25;;;31.56;39.19
10587;BME280;5341;47.606;7.576;2023-07-09T09:05:15;99124.34;;;31.65;39.05
10587;BME280;5341;47.606;7.576;2023-07-09T09:07:48;99128.63;;;31.71;38.81
10587;BME280;5341;47.606;7.576;2023-07-09T09:10:29;99114.59;;;31.81;38.46
10587;BME280;5341;47.606;7.576;2023-07-09T09:13:12;99119.22;;;31.94;38.47
10587;BME280;5341;47.606;7.576;2023-07-09T09:15:46;99110.69;;;32.04;38.27
10587;BME280;5341;47.606;7.576;2023-07-09T09:18:28;99121.50;;;32.15;38.16
10587;BME280;5341;47.606;7.576;2023-07-09T09:21:05;99127.59;;;32.25;38.12
10587;BME280;5341;47.606;7.576;2023-07-09T09:23:38;99129.31;;;32.35;38.05
10587;BME280;5341;47.606;7.576;2023-07-09T09:26:14;99124.13;;;32.42;37.66
10587;BME280;5341;47.606;7.576;2023-07-09T09:28:43;99125.63;;;32.48;37.09
10587;BME280;5341;47.606;7.576;2023-07-09T09:31:13;99126.78;;;32.47;37.13
10587;BME280;5341;47.606;7.576;2023-07-09T09:33:43;99127.28;;;32.49;36.68
10587;BME280;5341;47.606;7.576;2023-07-09T09:36:16;99129.06;;;32.54;36.16
10587;BME280;5341;47.606;7.576;2023-07-09T09:38:44;99121.47;;;32.59;36.47
10587;BME280;5341;47.606;7.576;2023-07-09T09:41:15;99125.38;;;32.67;36.89
10587;BME280;5341;47.606;7.576;2023-07-09T09:43:45;99124.13;;;32.73;36.68
10587;BME280;5341;47.606;7.576;2023-07-09T09:46:23;99126.75;;;32.78;36.77
10587;BME280;5341;47.606;7.576;2023-07-09T09:48:53;99120.78;;;32.85;36.57
10587;BME280;5341;47.606;7.576;2023-07-09T09:51:23;99113.63;;;32.92;36.54
10587;BME280;5341;47.606;7.576;2023-07-09T09:53:57;99117.25;;;33.02;36.04
10587;BME280;5341;47.606;7.576;2023-07-09T09:56:28;99118.72;;;33.08;36.26
10587;BME280;5341;47.606;7.576;2023-07-09T09:58:57;99117.44;;;33.14;36.12
10587;BME280;5341;47.606;7.576;2023-07-09T10:01:28;99122.69;;;33.24;35.80
10587;BME280;5341;47.606;7.576;2023-07-09T10:03:58;99127.28;;;33.37;35.66
10587;BME280;5341;47.606;7.576;2023-07-09T10:06:34;99117.84;;;33.47;35.54
10587;BME280;5341;47.606;7.576;2023-07-09T10:09:08;99109.22;;;33.57;35.96
10587;BME280;5341;47.606;7.576;2023-07-09T10:11:45;99110.53;;;33.68;35.72
10587;BME280;5341;47.606;7.576;2023-07-09T10:14:28;99104.94;;;33.77;35.30
10587;BME280;5341;47.606;7.576;2023-07-09T10:17:05;99097.28;;;33.83;35.16
10587;BME280;5341;47.606;7.576;2023-07-09T10:19:46;99103.19;;;33.90;35.19
10587;BME280;5341;47.606;7.576;2023-07-09T10:22:24;99101.72;;;33.92;35.26
10587;BME280;5341;47.606;7.576;2023-07-09T10:25:01;99094.84;;;33.98;35.33
10587;BME280;5341;47.606;7.576;2023-07-09T10:27:36;99088.47;;;34.06;35.08
10587;BME280;5341;47.606;7.576;2023-07-09T10:30:19;99092.53;;;34.18;35.08
10587;BME280;5341;47.606;7.576;2023-07-09T10:33:00;99089.91;;;34.21;35.82
10587;BME280;5341;47.606;7.576;2023-07-09T10:35:37;99082.72;;;34.29;35.31
10587;BME280;5341;47.606;7.576;2023-07-09T10:41:00;99078.41;;;34.49;34.76
10587;BME280;5341;47.606;7.576;2023-07-09T10:43:35;99081.28;;;34.61;34.63
10587;BME280;5341;47.606;7.576;2023-07-09T10:46:10;99084.19;;;34.73;34.31
10587;BME280;5341;47.606;7.576;2023-07-09T10:48:44;99088.69;;;34.86;34.61
10587;BME280;5341;47.606;7.576;2023-07-09T10:51:19;99097.16;;;34.99;34.42
10587;BME280;5341;47.606;7.576;2023-07-09T10:53:52;99088.97;;;35.02;34.26
10587;BME280;5341;47.606;7.576;2023-07-09T10:56:26;99087.63;;;35.08;34.18
10587;BME280;5341;47.606;7.576;2023-07-09T10:58:57;99077.94;;;35.14;34.15
10587;BME280;5341;47.606;7.576;2023-07-09T11:01:30;99082.63;;;35.22;33.42
10587;BME280;5341;47.606;7.576;2023-07-09T11:04:04;99082.28;;;35.24;33.88
10587;BME280;5341;47.606;7.576;2023-07-09T11:06:35;99083.84;;;35.34;33.54
10587;BME280;5341;47.606;7.576;2023-07-09T11:09:13;99087.09;;;35.36;33.36
10587;BME280;5341;47.606;7.576;2023-07-09T11:11:47;99075.66;;;35.37;34.17
10587;BME280;5341;47.606;7.576;2023-07-09T11:14:23;99078.03;;;35.47;34.42
10587;BME280;5341;47.606;7.576;2023-07-09T11:16:53;99082.50;;;35.61;34.15
10587;BME280;5341;47.606;7.576;2023-07-09T11:19:24;99075.84;;;35.74;34.07
10587;BME280;5341;47.606;7.576;2023-07-09T11:22:02;99072.47;;;35.89;33.28
10587;BME280;5341;47.606;7.576;2023-07-09T11:24:32;99068.34;;;36.07;32.46
10587;BME280;5341;47.606;7.576;2023-07-09T11:27:01;99067.56;;;36.19;32.69
10587;BME280;5341;47.606;7.576;2023-07-09T11:29:28;99072.56;;;36.26;32.59
10587;BME280;5341;47.606;7.576;2023-07-09T11:32:07;99066.31;;;36.29;33.10
10587;BME280;5341;47.606;7.576;2023-07-09T11:34:45;99065.28;;;36.33;32.11
10587;BME280;5341;47.606;7.576;2023-07-09T11:37:13;99065.78;;;36.35;32.95
10587;BME280;5341;47.606;7.576;2023-07-09T11:39:46;99068.31;;;36.41;33.14
10587;BME280;5341;47.606;7.576;2023-07-09T11:42:28;99066.47;;;36.45;31.98
10587;BME280;5341;47.606;7.576;2023-07-09T11:45:02;99071.38;;;36.48;32.23
10587;BME280;5341;47.606;7.576;2023-07-09T11:47:37;99066.03;;;36.55;31.45
10587;BME280;5341;47.606;7.576;2023-07-09T11:50:16;99063.84;;;36.60;31.40
10587;BME280;5341;47.606;7.576;2023-07-09T11:52:52;99068.00;;;36.66;32.01
10587;BME280;5341;47.606;7.576;2023-07-09T11:55:39;99062.66;;;36.74;31.27
10587;BME280;5341;47.606;7.576;2023-07-09T11:58:09;99060.59;;;36.83;31.50
10587;BME280;5341;47.606;7.576;2023-07-09T12:00:39;99046.06;;;36.89;30.97
10587;BME280;5341;47.606;7.576;2023-07-09T12:03:14;99058.50;;;36.92;30.40
10587;BME280;5341;47.606;7.576;2023-07-09T12:05:48;99049.22;;;36.88;30.56
10587;BME280;5341;47.606;7.576;2023-07-09T12:08:17;99039.69;;;36.89;30.42
10587;BME280;5341;47.606;7.576;2023-07-09T12:10:45;99048.47;;;36.79;30.69
10587;BME280;5341;47.606;7.576;2023-07-09T12:13:13;99032.38;;;36.84;31.13
10587;BME280;5341;47.606;7.576;2023-07-09T12:15:41;99030.16;;;36.90;30.90
10587;BME280;5341;47.606;7.576;2023-07-09T12:18:13;99031.56;;;36.96;29.80
10587;BME280;5341;47.606;7.576;2023-07-09T12:20:47;99028.63;;;37.05;30.79
10587;BME280;5341;47.606;7.576;2023-07-09T12:23:20;99038.56;;;37.18;30.41
10587;BME280;5341;47.606;7.576;2023-07-09T12:25:49;99025.22;;;37.23;29.46
10587;BME280;5341;47.606;7.576;2023-07-09T12:28:18;99029.41;;;37.30;29.29
10587;BME280;5341;47.606;7.576;2023-07-09T12:30:47;99015.56;;;37.33;29.69
10587;BME280;5341;47.606;7.576;2023-07-09T12:33:16;99010.31;;;37.44;30.07
10587;BME280;5341;47.606;7.576;2023-07-09T12:35:47;99009.78;;;37.54;30.01
10587;BME280;5341;47.606;7.576;2023-07-09T12:38:20;99008.09;;;37.65;29.27
10587;BME280;5341;47.606;7.576;2023-07-09T12:40:49;99009.84;;;37.70;29.50
10587;BME280;5341;47.606;7.576;2023-07-09T12:43:19;99002.06;;;37.63;28.88
10587;BME280;5341;47.606;7.576;2023-07-09T12:45:51;99005.22;;;37.62;29.50
10587;BME280;5341;47.606;7.576;2023-07-09T12:48:22;99007.41;;;37.68;29.18
10587;BME280;5341;47.606;7.576;2023-07-09T12:50:55;98990.88;;;37.75;28.50
10587;BME280;5341;47.606;7.576;2023-07-09T12:53:25;98994.75;;;37.87;28.74
10587;BME280;5341;47.606;7.576;2023-07-09T12:55:55;98988.56;;;37.93;28.22
10587;BME280;5341;47.606;7.576;2023-07-09T12:58:25;98997.94;;;38.01;27.78
10587;BME280;5341;47.606;7.576;2023-07-09T13:00:55;98988.38;;;38.02;27.16
10587;BME280;5341;47.606;7.576;2023-07-09T13:03:26;98996.38;;;38.03;27.25
10587;BME280;5341;47.606;7.576;2023-07-09T13:05:57;98998.13;;;38.08;27.68
10587;BME280;5341;47.606;7.576;2023-07-09T13:08:26;98991.88;;;38.15;26.89
10587;BME280;5341;47.606;7.576;2023-07-09T13:10:54;98983.88;;;38.13;27.33
10587;BME280;5341;47.606;7.576;2023-07-09T13:13:23;98993.97;;;38.02;27.64
10587;BME280;5341;47.606;7.576;2023-07-09T13:15:54;98985.59;;;38.02;27.40
10587;BME280;5341;47.606;7.576;2023-07-09T13:18:23;98980.00;;;38.02;27.57
10587;BME280;5341;47.606;7.576;2023-07-09T13:20:52;98977.41;;;38.09;27.50
10587;BME280;5341;47.606;7.576;2023-07-09T13:23:24;98969.66;;;38.18;26.47
10587;BME280;5341;47.606;7.576;2023-07-09T13:25:53;98980.22;;;38.25;26.43
10587;BME280;5341;47.606;7.576;2023-07-09T13:28:24;98972.03;;;38.32;26.29
10587;BME280;5341;47.606;7.576;2023-07-09T13:30:57;98964.53;;;38.36;26.81